首页
METAR-TAF:

METAR-TAF

机场 :

Salt Point, 路易斯安那州, 美国

纬度: 29-33-44N, 经度: 091-31-32W, 海拔: 0米

当前天气观测

该预报发布于54分钟前的15:59 UTC
风速6节,风向多变
温度 17°C
湿度 77%
气压 1025 hPa

METAR: KP92 231559Z AUTO VRB06KT 17/13 A3026 RMK AO1 SLP246 T01670128

时间: 10:53 (16:53 UTC)


TAF: 丢失

超过4000个机场的气象观测和天气预报(METAR&TAF报告)。

可查询的气象台以黄色和红色小点在地图上表示。

将鼠标移到小点上方,可查看气象台名称。

然后点击查看天气观测和预报。

如需切换地图:点击带黑十字的绿色按钮放大地图;点击带横线的绿色按钮缩小地图;或者点击绿色箭头查看邻近地区的地图。


METAR-TAF: